createdAt,value
2022-10-11T00:00:02.564Z,4.63
2022-10-11T00:00:25.234Z,4.82
2022-10-11T00:00:47.135Z,4.70
2022-10-11T00:01:09.008Z,4.80
2022-10-11T00:01:30.907Z,4.65
2022-10-11T00:01:52.713Z,4.40
2022-10-11T00:02:14.600Z,4.63
2022-10-11T00:02:36.342Z,4.78
2022-10-11T00:02:58.238Z,5.20
2022-10-11T00:03:21.009Z,4.72
2022-10-11T00:03:42.750Z,4.30
2022-10-11T00:04:04.737Z,4.53
2022-10-11T00:04:26.457Z,4.90
2022-10-11T00:04:50.496Z,4.72
2022-10-11T00:05:14.349Z,4.63
2022-10-11T00:05:36.378Z,4.60
2022-10-11T00:05:58.195Z,4.50
2022-10-11T00:06:20.131Z,4.53
2022-10-11T00:06:43.672Z,4.90
2022-10-11T00:07:05.472Z,4.82
2022-10-11T00:07:27.278Z,4.95
2022-10-11T00:07:49.334Z,4.68
2022-10-11T00:08:12.708Z,4.43
2022-10-11T00:08:34.653Z,4.72
2022-10-11T00:08:56.474Z,4.53
2022-10-11T00:09:18.190Z,4.32
2022-10-11T00:09:40.355Z,4.63
2022-10-11T00:10:02.077Z,4.70
2022-10-11T00:10:24.571Z,4.75
2022-10-11T00:10:55.971Z,4.80
2022-10-11T00:11:17.796Z,4.60
2022-10-11T00:11:39.681Z,5.15
2022-10-11T00:12:01.417Z,4.80
2022-10-11T00:12:23.146Z,4.75
2022-10-11T00:12:45.084Z,4.53
2022-10-11T00:13:07.659Z,4.55
2022-10-11T00:13:30.052Z,4.90
2022-10-11T00:13:52.178Z,4.88
2022-10-11T00:14:13.832Z,4.63
2022-10-11T00:14:35.994Z,4.47
2022-10-11T00:14:57.770Z,4.50
2022-10-11T00:15:21.827Z,4.70
2022-10-11T00:15:43.528Z,4.57
2022-10-11T00:16:12.783Z,4.70
2022-10-11T00:16:37.699Z,4.50
2022-10-11T00:16:59.796Z,4.72
2022-10-11T00:17:21.476Z,4.53
2022-10-11T00:17:43.516Z,4.47
2022-10-11T00:18:05.553Z,4.40
2022-10-11T00:18:27.470Z,4.35
2022-10-11T00:18:49.153Z,4.30
2022-10-11T00:19:11.846Z,4.53
2022-10-11T00:19:34.178Z,4.72
2022-10-11T00:19:55.873Z,4.63
2022-10-11T00:20:18.220Z,4.28
2022-10-11T00:20:39.919Z,4.60
2022-10-11T00:21:06.797Z,4.60
2022-10-11T00:21:28.519Z,4.70
2022-10-11T00:21:50.508Z,4.55
2022-10-11T00:22:12.509Z,4.40
2022-10-11T00:22:35.808Z,4.43
2022-10-11T00:22:57.491Z,5.05
2022-10-11T00:23:19.192Z,4.97
2022-10-11T00:23:41.485Z,4.80
2022-10-11T00:24:04.027Z,4.53
2022-10-11T00:24:25.973Z,4.72
2022-10-11T00:24:47.645Z,4.57
2022-10-11T00:25:11.553Z,4.70
2022-10-11T00:25:33.219Z,4.68
2022-10-11T00:26:03.813Z,4.63
2022-10-11T00:26:25.800Z,4.45
2022-10-11T00:26:47.479Z,4.72
2022-10-11T00:27:09.384Z,4.80
2022-10-11T00:27:31.080Z,4.65
2022-10-11T00:27:52.752Z,4.72
2022-10-11T00:28:14.474Z,4.68
2022-10-11T00:28:36.998Z,4.70
2022-10-11T00:28:58.828Z,4.57
2022-10-11T00:29:20.618Z,4.80
2022-10-11T00:29:42.323Z,5.13
2022-10-11T00:30:06.332Z,4.75
2022-10-11T00:30:28.046Z,4.40
2022-10-11T00:30:49.975Z,4.60
2022-10-11T00:31:15.875Z,4.53
2022-10-11T00:31:37.615Z,4.53
2022-10-11T00:31:59.427Z,4.80
2022-10-11T00:32:21.247Z,4.63
2022-10-11T00:32:42.930Z,4.68
2022-10-11T00:33:04.970Z,4.90
2022-10-11T00:33:27.038Z,4.55
2022-10-11T00:33:48.998Z,4.72
2022-10-11T00:34:13.352Z,4.97
2022-10-11T00:34:35.084Z,4.78
2022-10-11T00:34:59.671Z,4.63
2022-10-11T00:35:21.381Z,4.97
2022-10-11T00:35:43.234Z,4.80
2022-10-11T00:36:06.356Z,4.80
2022-10-11T00:36:28.465Z,4.60
2022-10-11T00:36:50.272Z,4.82
2022-10-11T00:37:12.047Z,4.93
2022-10-11T00:37:36.021Z,4.70
2022-10-11T00:37:57.714Z,4.30
2022-10-11T00:38:19.656Z,4.55
2022-10-11T00:38:41.818Z,4.40
2022-10-11T00:39:04.774Z,4.60
2022-10-11T00:39:26.900Z,4.60
2022-10-11T00:39:49.423Z,4.53
2022-10-11T00:40:16.262Z,4.63
2022-10-11T00:40:38.127Z,5.00
2022-10-11T00:41:00.818Z,5.20
2022-10-11T00:41:22.568Z,4.93
2022-10-11T00:41:44.257Z,4.82
2022-10-11T00:42:14.920Z,4.68
2022-10-11T00:42:36.724Z,4.70
2022-10-11T00:42:58.577Z,4.85
2022-10-11T00:43:24.760Z,4.85
2022-10-11T00:43:46.505Z,4.72
2022-10-11T00:44:14.665Z,4.32
2022-10-11T00:44:36.396Z,4.75
2022-10-11T00:45:26.034Z,4.50
2022-10-11T00:45:56.901Z,4.60
2022-10-11T00:46:18.548Z,4.63
2022-10-11T00:46:43.704Z,4.90
2022-10-11T00:47:09.649Z,4.47
2022-10-11T00:47:31.406Z,4.57
2022-10-11T00:48:17.844Z,4.80
2022-10-11T00:49:12.722Z,4.38
2022-10-11T00:49:38.166Z,5.22
2022-10-11T00:50:01.697Z,4.97
2022-10-11T00:50:24.693Z,5.20
2022-10-11T00:50:46.432Z,4.88
2022-10-11T00:51:17.194Z,5.03
2022-10-11T00:51:46.903Z,4.93
2022-10-11T00:52:22.957Z,4.85
2022-10-11T00:52:49.616Z,4.70
2022-10-11T00:53:12.544Z,4.90
2022-10-11T00:53:34.389Z,4.72
2022-10-11T00:53:56.424Z,4.55
2022-10-11T00:54:21.714Z,4.55
2022-10-11T00:54:46.822Z,4.32
2022-10-11T00:55:12.903Z,5.22
2022-10-11T00:55:40.837Z,4.82
2022-10-11T00:56:08.826Z,4.70
2022-10-11T00:56:35.949Z,5.18
2022-10-11T00:57:03.331Z,4.70
2022-10-11T00:57:27.571Z,4.50
2022-10-11T00:57:52.853Z,4.95
2022-10-11T00:58:15.058Z,4.68
2022-10-11T00:58:38.426Z,5.00
2022-10-11T00:59:04.555Z,4.80
2022-10-11T00:59:30.853Z,4.78
2022-10-11T00:59:55.459Z,4.60
2022-10-11T01:00:17.724Z,4.95
2022-10-11T01:00:39.520Z,5.05
2022-10-11T01:01:01.459Z,4.80
2022-10-11T01:01:23.497Z,4.95
2022-10-11T01:01:45.477Z,5.00
2022-10-11T01:02:08.616Z,4.90
2022-10-11T01:02:30.407Z,5.13
2022-10-11T01:02:52.181Z,5.18
2022-10-11T01:03:14.608Z,5.13
2022-10-11T01:03:38.162Z,4.97
2022-10-11T01:04:01.674Z,4.72
2022-10-11T01:04:23.671Z,4.80
2022-10-11T01:04:45.572Z,4.75
2022-10-11T01:05:28.752Z,4.70
2022-10-11T01:05:51.888Z,4.90
2022-10-11T01:06:13.639Z,4.82
2022-10-11T01:06:35.871Z,5.13
2022-10-11T01:06:58.417Z,4.97
2022-10-11T01:07:21.265Z,4.70
2022-10-11T01:07:44.819Z,4.88
2022-10-11T01:08:08.301Z,4.95
2022-10-11T01:08:31.744Z,5.00
2022-10-11T01:08:54.845Z,4.90
2022-10-11T01:09:17.561Z,5.05
2022-10-11T01:09:39.272Z,5.18
2022-10-11T01:10:01.265Z,5.00
2022-10-11T01:10:23.035Z,4.80
2022-10-11T01:10:45.210Z,5.10
2022-10-11T01:11:09.431Z,4.80
2022-10-11T01:11:32.770Z,5.55
2022-10-11T01:11:58.934Z,5.35
2022-10-11T01:12:24.476Z,5.18
2022-10-11T01:13:25.749Z,4.93
2022-10-11T01:14:30.546Z,5.13
2022-10-11T01:14:58.240Z,5.25
2022-10-11T01:15:48.840Z,5.20
2022-10-11T01:16:25.134Z,5.00
2022-10-11T01:16:49.527Z,5.10
2022-10-11T01:17:21.950Z,5.07
2022-10-11T01:18:02.723Z,5.05
2022-10-11T01:18:34.228Z,5.20
2022-10-11T01:18:58.981Z,5.20
2022-10-11T01:19:23.367Z,4.60
2022-10-11T01:19:45.785Z,5.35
2022-10-11T01:20:30.195Z,5.35
2022-10-11T01:21:18.501Z,5.13
2022-10-11T01:21:57.550Z,5.18
2022-10-11T01:22:46.623Z,5.13
2022-10-11T01:23:15.495Z,5.43
2022-10-11T01:24:19.672Z,5.55
2022-10-11T01:25:13.212Z,5.10
2022-10-11T01:25:59.066Z,5.07
2022-10-11T01:26:48.270Z,5.20
2022-10-11T01:27:16.003Z,4.72
2022-10-11T01:27:52.561Z,4.93
2022-10-11T01:28:29.350Z,4.95
2022-10-11T01:29:25.000Z,5.10
2022-10-11T01:30:14.091Z,4.90
2022-10-11T01:30:37.123Z,5.03
2022-10-11T01:31:06.700Z,4.85
2022-10-11T01:31:43.348Z,5.15
2022-10-11T01:32:22.823Z,5.35
2022-10-11T01:32:49.086Z,5.30
2022-10-11T01:33:16.322Z,4.85
2022-10-11T01:33:44.991Z,5.15
2022-10-11T01:34:15.025Z,4.93
2022-10-11T01:35:00.992Z,4.60
2022-10-11T01:35:29.307Z,4.53
2022-10-11T01:36:13.869Z,4.88
2022-10-11T01:36:40.581Z,5.15
2022-10-11T01:37:24.525Z,5.15
2022-10-11T01:37:59.525Z,4.88
2022-10-11T01:38:24.015Z,4.72
2022-10-11T01:38:52.351Z,5.20
2022-10-11T01:39:24.208Z,4.47
2022-10-11T01:39:51.996Z,4.75
2022-10-11T01:40:23.708Z,5.20
2022-10-11T01:40:53.053Z,4.97
2022-10-11T01:41:28.186Z,4.60
2022-10-11T01:41:54.095Z,5.10
2022-10-11T01:42:19.299Z,5.65
2022-10-11T01:42:42.882Z,5.38
2022-10-11T01:43:05.803Z,4.88
2022-10-11T01:43:29.270Z,5.30
2022-10-11T01:43:57.683Z,5.50
2022-10-11T01:44:20.289Z,5.18
2022-10-11T01:44:45.655Z,5.25
2022-10-11T01:45:15.534Z,5.50
2022-10-11T01:45:37.815Z,5.45
2022-10-11T01:46:01.886Z,5.32
2022-10-11T01:46:24.481Z,5.65
2022-10-11T01:46:46.448Z,5.05
2022-10-11T01:47:08.159Z,5.32
2022-10-11T01:47:29.859Z,5.40
2022-10-11T01:48:05.885Z,5.03
2022-10-11T01:48:27.703Z,5.07
2022-10-11T01:48:54.801Z,5.30
2022-10-11T01:49:16.500Z,5.07
2022-10-11T01:49:38.277Z,5.10
2022-10-11T01:50:02.109Z,5.00
2022-10-11T01:50:43.723Z,5.20
2022-10-11T01:51:05.514Z,4.90
2022-10-11T01:51:49.077Z,5.47
2022-10-11T01:52:11.241Z,5.30
2022-10-11T01:52:35.897Z,5.47
2022-10-11T01:53:06.298Z,5.60
2022-10-11T01:53:38.687Z,5.18
2022-10-11T01:54:21.264Z,5.10
2022-10-11T01:55:15.349Z,5.68
2022-10-11T01:55:48.861Z,5.40
2022-10-11T01:56:36.373Z,5.30
2022-10-11T01:57:24.920Z,5.40
2022-10-11T01:58:04.702Z,5.07
2022-10-11T01:58:36.234Z,5.72
2022-10-11T01:59:21.028Z,5.68
2022-10-11T02:00:06.786Z,5.32
2022-10-11T02:00:38.407Z,5.20
2022-10-11T02:01:31.470Z,5.40
2022-10-11T02:02:05.088Z,5.85
2022-10-11T02:02:55.284Z,5.53
2022-10-11T02:03:27.726Z,5.30
2022-10-11T02:04:03.089Z,5.40
2022-10-11T02:04:30.391Z,5.80
2022-10-11T02:05:05.951Z,5.60
2022-10-11T02:05:51.384Z,5.57
2022-10-11T02:06:17.867Z,5.32
2022-10-11T02:06:42.386Z,5.50
2022-10-11T02:07:10.396Z,5.35
2022-10-11T02:07:41.968Z,5.68
2022-10-11T02:08:20.895Z,5.70
2022-10-11T02:09:21.333Z,5.35
2022-10-11T02:10:06.066Z,5.50
2022-10-11T02:11:15.588Z,5.55
2022-10-11T02:11:38.538Z,5.45
2022-10-11T02:12:09.184Z,5.20
2022-10-11T02:12:44.530Z,5.60
2022-10-11T02:13:13.256Z,5.65
2022-10-11T02:13:55.208Z,5.97
2022-10-11T02:14:26.607Z,5.38
2022-10-11T02:14:50.902Z,5.40
2022-10-11T02:15:18.056Z,5.50
2022-10-11T02:15:41.738Z,5.68
2022-10-11T02:16:08.019Z,5.70
2022-10-11T02:16:44.453Z,5.50
2022-10-11T02:17:14.652Z,5.90
2022-10-11T02:17:49.841Z,5.60
2022-10-11T02:18:20.048Z,5.90
2022-10-11T02:18:46.975Z,5.50
2022-10-11T02:19:10.884Z,5.60
2022-10-11T02:19:36.946Z,5.32
2022-10-11T02:20:01.134Z,5.97
2022-10-11T02:20:25.932Z,5.45
2022-10-11T02:20:50.377Z,5.97
2022-10-11T02:21:16.430Z,5.43
2022-10-11T02:21:41.556Z,5.65
2022-10-11T02:22:08.484Z,5.47
2022-10-11T02:22:37.094Z,5.70
2022-10-11T02:23:09.015Z,5.60
2022-10-11T02:23:36.297Z,5.63
2022-10-11T02:24:04.035Z,5.65
2022-10-11T02:24:30.608Z,5.47
2022-10-11T02:24:56.240Z,5.53
2022-10-11T02:25:22.788Z,5.43
2022-10-11T02:25:45.696Z,5.70
2022-10-11T02:26:11.223Z,5.78
2022-10-11T02:26:34.610Z,5.68
2022-10-11T02:26:57.707Z,5.38
2022-10-11T02:27:23.211Z,6.20
2022-10-11T02:27:47.180Z,5.70
2022-10-11T02:28:14.622Z,5.60
2022-10-11T02:28:39.745Z,5.60
2022-10-11T02:29:04.680Z,5.90
2022-10-11T02:29:29.103Z,6.07
2022-10-11T02:29:53.677Z,5.85
2022-10-11T02:30:16.015Z,5.68
2022-10-11T02:30:40.515Z,5.60
2022-10-11T02:31:06.001Z,5.88
2022-10-11T02:31:30.469Z,5.72
2022-10-11T02:31:52.862Z,5.90
2022-10-11T02:32:17.300Z,5.80
2022-10-11T02:32:42.137Z,5.78
2022-10-11T02:33:07.662Z,5.75
2022-10-11T02:33:39.047Z,5.88
2022-10-11T02:34:08.355Z,6.03
2022-10-11T02:34:41.229Z,5.60
2022-10-11T02:35:04.421Z,5.60
2022-10-11T02:35:30.079Z,5.85
2022-10-11T02:35:58.692Z,5.70
2022-10-11T02:36:30.424Z,5.53
2022-10-11T02:37:25.594Z,6.03
2022-10-11T02:38:07.441Z,5.90
2022-10-11T02:38:40.092Z,5.57
2022-10-11T02:39:12.003Z,5.80
2022-10-11T02:39:43.954Z,5.90
2022-10-11T02:40:24.502Z,5.65
2022-10-11T02:40:50.442Z,5.97
2022-10-11T02:41:35.419Z,5.95
2022-10-11T02:42:01.255Z,5.78
2022-10-11T02:42:32.726Z,5.93
2022-10-11T02:42:59.605Z,5.60
2022-10-11T02:43:36.663Z,6.05
2022-10-11T02:44:13.101Z,6.30
2022-10-11T02:44:43.729Z,5.90
2022-10-11T02:45:16.333Z,5.93
2022-10-11T02:45:42.215Z,6.22
2022-10-11T02:46:05.968Z,6.18
2022-10-11T02:46:30.541Z,6.35
2022-10-11T02:46:52.493Z,6.03
2022-10-11T02:47:14.797Z,6.20
2022-10-11T02:47:37.901Z,6.00
2022-10-11T02:48:00.998Z,5.90
2022-10-11T02:48:25.260Z,5.95
2022-10-11T02:48:47.574Z,5.82
2022-10-11T02:49:10.180Z,5.75
2022-10-11T02:49:34.011Z,6.55
2022-10-11T02:49:55.877Z,6.20
2022-10-11T02:50:17.797Z,6.00
2022-10-11T02:50:40.368Z,6.05
2022-10-11T02:51:03.518Z,6.18
2022-10-11T02:51:29.661Z,6.18
2022-10-11T02:51:51.405Z,6.00
2022-10-11T02:52:14.609Z,6.07
2022-10-11T02:52:36.303Z,6.35
2022-10-11T02:52:58.887Z,6.30
2022-10-11T02:53:21.418Z,6.18
2022-10-11T02:53:43.351Z,6.05
2022-10-11T02:54:05.324Z,5.97
2022-10-11T02:54:27.591Z,5.90
2022-10-11T02:54:49.279Z,5.88
2022-10-11T02:55:11.956Z,6.05
2022-10-11T02:55:33.799Z,5.90
2022-10-11T02:55:56.254Z,5.85
2022-10-11T02:56:17.995Z,6.13
2022-10-11T02:56:39.691Z,6.00
2022-10-11T02:57:01.488Z,5.90
2022-10-11T02:57:23.196Z,5.93
2022-10-11T02:57:44.915Z,5.90
2022-10-11T02:58:06.695Z,6.43
2022-10-11T02:58:28.421Z,6.18
2022-10-11T02:58:50.159Z,5.70
2022-10-11T02:59:12.165Z,6.03
2022-10-11T02:59:33.885Z,6.13
2022-10-11T02:59:55.793Z,5.97
2022-10-11T03:00:17.756Z,5.90
2022-10-11T03:00:39.683Z,6.10
2022-10-11T03:01:01.479Z,6.40
2022-10-11T03:01:23.438Z,6.32
2022-10-11T03:01:45.327Z,6.50
2022-10-11T03:02:07.459Z,5.90
2022-10-11T03:02:29.229Z,6.00
2022-10-11T03:02:51.085Z,6.72
2022-10-11T03:03:12.778Z,6.97
2022-10-11T03:03:34.506Z,6.63
2022-10-11T03:03:58.528Z,6.45
2022-10-11T03:04:20.291Z,6.18
2022-10-11T03:04:42.049Z,6.25
2022-10-11T03:05:04.293Z,6.20
2022-10-11T03:05:26.040Z,6.35
2022-10-11T03:05:47.789Z,6.60
2022-10-11T03:06:09.929Z,6.82
2022-10-11T03:06:31.926Z,7.07
2022-10-11T03:06:53.676Z,6.57
2022-10-11T03:07:15.490Z,6.97
2022-10-11T03:07:37.184Z,7.20
2022-10-11T03:07:58.895Z,6.80
2022-10-11T03:08:20.635Z,6.50
2022-10-11T03:08:42.563Z,6.88
2022-10-11T03:09:04.601Z,6.25
2022-10-11T03:09:27.176Z,6.30
2022-10-11T03:09:49.114Z,6.50
2022-10-11T03:10:10.951Z,7.00
2022-10-11T03:10:34.030Z,6.82
2022-10-11T03:10:55.854Z,6.75
2022-10-11T03:11:17.599Z,6.95
2022-10-11T03:11:39.271Z,6.55
2022-10-11T03:12:00.979Z,6.95
2022-10-11T03:12:23.141Z,6.85
2022-10-11T03:12:45.065Z,6.60
2022-10-11T03:13:06.754Z,6.63
2022-10-11T03:13:28.462Z,6.85
2022-10-11T03:13:51.613Z,6.63
2022-10-11T03:14:14.179Z,6.80
2022-10-11T03:14:36.095Z,6.60
2022-10-11T03:14:58.045Z,7.03
2022-10-11T03:15:19.779Z,7.00
2022-10-11T03:15:41.478Z,7.03
2022-10-11T03:16:03.887Z,6.63
2022-10-11T03:16:25.637Z,7.25
2022-10-11T03:16:47.678Z,7.43
2022-10-11T03:17:31.400Z,6.80
2022-10-11T03:17:51.356Z,7.00
2022-10-11T03:18:13.081Z,7.50
2022-10-11T03:18:35.303Z,7.05
2022-10-11T03:18:56.991Z,7.05
2022-10-11T03:19:19.524Z,7.05
2022-10-11T03:19:41.333Z,7.05
2022-10-11T03:20:03.297Z,6.65
2022-10-11T03:20:25.250Z,6.80
2022-10-11T03:20:47.274Z,7.03
2022-10-11T03:21:09.109Z,6.70
2022-10-11T03:21:31.097Z,6.43
2022-10-11T03:21:52.973Z,6.63
2022-10-11T03:22:14.886Z,6.70
2022-10-11T03:22:36.857Z,6.95
2022-10-11T03:22:58.735Z,6.93
2022-10-11T03:23:20.448Z,6.97
2022-10-11T03:23:42.850Z,7.18
2022-10-11T03:24:04.731Z,7.25
2022-10-11T03:24:26.670Z,7.45
2022-10-11T03:24:48.407Z,7.05
2022-10-11T03:25:10.362Z,6.60
2022-10-11T03:25:32.196Z,6.45
2022-10-11T03:25:53.912Z,6.85
2022-10-11T03:26:15.876Z,6.60
2022-10-11T03:26:37.811Z,6.95
2022-10-11T03:27:00.062Z,6.80
2022-10-11T03:27:21.819Z,6.32
2022-10-11T03:27:43.631Z,6.50
2022-10-11T03:28:05.810Z,6.95
2022-10-11T03:28:27.856Z,6.75
2022-10-11T03:28:49.694Z,6.97
2022-10-11T03:29:11.480Z,6.80
2022-10-11T03:29:33.173Z,6.65
2022-10-11T03:29:55.085Z,6.70
2022-10-11T03:30:18.447Z,7.03
2022-10-11T03:30:40.306Z,6.90
2022-10-11T03:31:02.018Z,7.00
2022-10-11T03:31:23.889Z,7.20
2022-10-11T03:31:45.575Z,6.90
2022-10-11T03:32:07.313Z,6.53
2022-10-11T03:32:29.698Z,6.60
2022-10-11T03:32:51.572Z,6.50
2022-10-11T03:33:13.253Z,6.68
2022-10-11T03:33:35.046Z,6.80
2022-10-11T03:33:56.700Z,7.20
2022-10-11T03:34:18.516Z,6.88
2022-10-11T03:34:40.277Z,7.03
2022-10-11T03:35:02.251Z,6.90
2022-10-11T03:35:24.026Z,6.80
2022-10-11T03:35:47.521Z,6.97
2022-10-11T03:36:09.505Z,6.78
2022-10-11T03:36:31.466Z,6.93
2022-10-11T03:36:53.837Z,6.90
2022-10-11T03:37:15.532Z,6.78
2022-10-11T03:37:38.452Z,6.90
2022-10-11T03:38:00.222Z,7.25
2022-10-11T03:38:22.789Z,7.60
2022-10-11T03:38:44.765Z,7.30
2022-10-11T03:39:06.724Z,6.97
2022-10-11T03:39:28.403Z,7.40
2022-10-11T03:39:50.303Z,7.13
2022-10-11T03:40:12.809Z,7.13
2022-10-11T03:40:34.816Z,7.35
2022-10-11T03:40:56.762Z,6.85
2022-10-11T03:41:19.340Z,7.10
2022-10-11T03:41:41.075Z,7.28
2022-10-11T03:42:03.074Z,7.47
2022-10-11T03:42:24.833Z,7.07
2022-10-11T03:42:46.660Z,7.07
2022-10-11T03:43:09.012Z,6.90
2022-10-11T03:43:30.824Z,6.85
2022-10-11T03:43:52.548Z,6.65
2022-10-11T03:44:14.922Z,6.80
2022-10-11T03:44:36.772Z,7.03
2022-10-11T03:44:59.733Z,6.90
2022-10-11T03:45:21.488Z,7.00
2022-10-11T03:45:43.525Z,6.57
2022-10-11T03:46:05.703Z,6.90
2022-10-11T03:46:27.596Z,6.70
2022-10-11T03:46:49.331Z,7.07
2022-10-11T03:47:11.351Z,7.47
2022-10-11T03:47:33.099Z,7.13
2022-10-11T03:47:54.837Z,6.80
2022-10-11T03:48:16.571Z,7.07
2022-10-11T03:48:39.202Z,6.95
2022-10-11T03:49:01.153Z,6.78
2022-10-11T03:49:23.211Z,6.75
2022-10-11T03:49:44.926Z,6.85
2022-10-11T03:50:09.060Z,7.22
2022-10-11T03:50:31.302Z,7.20
2022-10-11T03:50:53.247Z,7.63
2022-10-11T03:51:15.751Z,7.30
2022-10-11T03:51:37.525Z,6.93
2022-10-11T03:51:59.373Z,7.38
2022-10-11T03:52:21.667Z,6.80
2022-10-11T03:52:43.393Z,6.97
2022-10-11T03:53:06.342Z,6.90
2022-10-11T03:53:28.383Z,6.90
2022-10-11T03:53:50.152Z,7.43
2022-10-11T03:54:11.947Z,6.80
2022-10-11T03:54:33.814Z,6.65
2022-10-11T03:54:55.841Z,7.07
2022-10-11T03:55:18.220Z,7.60
2022-10-11T03:55:41.558Z,6.90
2022-10-11T03:56:08.340Z,7.10
2022-10-11T03:56:30.334Z,7.32
2022-10-11T03:56:52.334Z,7.03
2022-10-11T03:57:14.419Z,7.07
2022-10-11T03:57:36.204Z,7.32
2022-10-11T03:57:58.066Z,7.10
2022-10-11T03:58:19.967Z,7.20
2022-10-11T03:58:42.178Z,7.30
2022-10-11T03:59:03.944Z,7.03
2022-10-11T03:59:25.746Z,7.30
2022-10-11T03:59:48.155Z,7.20
2022-10-11T04:00:10.253Z,6.97
2022-10-11T04:00:34.085Z,7.13
2022-10-11T04:00:55.956Z,7.72
2022-10-11T04:01:17.914Z,7.18
2022-10-11T04:01:39.722Z,6.97
2022-10-11T04:02:01.578Z,7.20
2022-10-11T04:02:23.671Z,7.03
2022-10-11T04:02:45.378Z,7.38
2022-10-11T04:03:07.076Z,7.10
2022-10-11T04:03:28.825Z,7.20
2022-10-11T04:03:50.551Z,7.30
2022-10-11T04:04:12.407Z,7.53
2022-10-11T04:04:34.219Z,7.57
2022-10-11T04:04:55.979Z,7.28
2022-10-11T04:05:19.188Z,7.05
2022-10-11T04:05:40.915Z,7.43
2022-10-11T04:06:03.052Z,6.93
2022-10-11T04:06:25.246Z,6.95
2022-10-11T04:06:46.971Z,7.55
2022-10-11T04:07:09.348Z,7.72
2022-10-11T04:07:31.227Z,7.32
2022-10-11T04:07:52.902Z,7.43
2022-10-11T04:08:14.866Z,7.50
2022-10-11T04:08:36.579Z,7.13
2022-10-11T04:08:58.405Z,7.13
2022-10-11T04:09:20.099Z,7.38
2022-10-11T04:09:41.945Z,7.25
2022-10-11T04:10:04.084Z,7.40
2022-10-11T04:10:25.792Z,6.90
2022-10-11T04:10:49.135Z,7.03
2022-10-11T04:11:10.843Z,7.78
2022-10-11T04:11:32.783Z,7.40
2022-10-11T04:11:54.472Z,7.03
2022-10-11T04:12:18.780Z,7.15
2022-10-11T04:12:40.468Z,7.13
2022-10-11T04:13:02.866Z,7.40
2022-10-11T04:13:24.658Z,7.57
2022-10-11T04:13:47.346Z,7.45
2022-10-11T04:14:09.103Z,7.38
2022-10-11T04:14:31.033Z,7.45
2022-10-11T04:14:52.730Z,7.43
2022-10-11T04:15:14.442Z,7.32
2022-10-11T04:15:38.154Z,7.72
2022-10-11T04:15:59.815Z,7.93
2022-10-11T04:16:21.523Z,7.63
2022-10-11T04:16:45.836Z,7.63
2022-10-11T04:17:07.742Z,7.40
2022-10-11T04:17:29.529Z,7.05
2022-10-11T04:17:51.369Z,7.45
2022-10-11T04:18:13.094Z,7.38
2022-10-11T04:18:34.799Z,7.22
2022-10-11T04:18:56.505Z,7.53
2022-10-11T04:19:18.494Z,7.38
2022-10-11T04:19:40.321Z,7.43
2022-10-11T04:20:02.038Z,7.47
2022-10-11T04:20:23.818Z,7.20
2022-10-11T04:20:45.590Z,7.60
2022-10-11T04:21:08.026Z,7.43
2022-10-11T04:21:29.758Z,7.10
2022-10-11T04:21:51.516Z,7.68
2022-10-11T04:22:13.782Z,7.65
2022-10-11T04:22:35.689Z,6.93
2022-10-11T04:22:57.416Z,7.15
2022-10-11T04:23:19.218Z,7.57
2022-10-11T04:23:41.153Z,7.30
2022-10-11T04:24:02.923Z,7.05
2022-10-11T04:24:24.896Z,7.25
2022-10-11T04:24:46.634Z,7.75
2022-10-11T04:25:09.172Z,7.65
2022-10-11T04:25:31.026Z,7.50
2022-10-11T04:25:53.040Z,8.02
2022-10-11T04:26:14.897Z,7.80
2022-10-11T04:26:36.639Z,7.22
2022-10-11T04:26:58.425Z,7.00
2022-10-11T04:27:20.136Z,7.57
2022-10-11T04:27:41.871Z,7.75
2022-10-11T04:28:03.924Z,7.40
2022-10-11T04:28:25.829Z,7.28
2022-10-11T04:28:47.790Z,7.60
2022-10-11T04:29:09.690Z,7.32
2022-10-11T04:29:32.754Z,7.20
2022-10-11T04:29:55.334Z,7.35
2022-10-11T04:30:17.228Z,7.38
2022-10-11T04:30:39.041Z,7.22
2022-10-11T04:31:00.993Z,7.32
2022-10-11T04:31:23.539Z,7.13
2022-10-11T04:31:45.519Z,7.43
2022-10-11T04:32:07.261Z,7.43
2022-10-11T04:32:29.009Z,7.55
2022-10-11T04:32:50.890Z,7.40
2022-10-11T04:33:12.586Z,7.63
2022-10-11T04:33:34.916Z,7.57
2022-10-11T04:33:57.223Z,7.40
2022-10-11T04:34:19.406Z,7.30
2022-10-11T04:34:41.182Z,7.28
2022-10-11T04:35:04.775Z,7.30
2022-10-11T04:35:26.645Z,7.63
2022-10-11T04:35:48.399Z,7.70
2022-10-11T04:36:10.339Z,7.53
2022-10-11T04:36:33.917Z,7.35
2022-10-11T04:36:55.662Z,7.50
2022-10-11T04:37:18.325Z,7.90
2022-10-11T04:37:40.293Z,7.72
2022-10-11T04:38:02.030Z,7.40
2022-10-11T04:38:24.415Z,7.22
2022-10-11T04:38:46.095Z,7.35
2022-10-11T04:39:08.213Z,7.82
2022-10-11T04:39:29.915Z,7.50
2022-10-11T04:39:51.588Z,7.40
2022-10-11T04:40:13.564Z,7.50
2022-10-11T04:40:35.328Z,7.68
2022-10-11T04:41:06.343Z,7.78
2022-10-11T04:41:29.338Z,7.43
2022-10-11T04:41:51.281Z,7.35
2022-10-11T04:42:13.095Z,7.50
2022-10-11T04:42:35.203Z,7.55
2022-10-11T04:42:57.282Z,7.13
2022-10-11T04:43:21.456Z,7.68
2022-10-11T04:43:43.256Z,9.88
2022-10-11T04:44:05.172Z,11.65
2022-10-11T04:44:28.157Z,12.68
2022-10-11T04:44:49.860Z,11.68
2022-10-11T04:45:11.834Z,24.85
2022-10-11T04:45:33.642Z,37.63
2022-10-11T04:45:55.639Z,34.22
2022-10-11T04:46:17.542Z,35.92
2022-10-11T04:46:39.394Z,39.55
2022-10-11T04:47:01.273Z,26.00
2022-10-11T04:47:23.417Z,12.75
2022-10-11T04:47:46.357Z,9.52
2022-10-11T04:48:08.317Z,9.05
2022-10-11T04:48:30.543Z,11.05
2022-10-11T04:48:52.781Z,15.82
2022-10-11T04:49:16.048Z,38.55
2022-10-11T04:49:37.970Z,15.77
2022-10-11T04:49:59.788Z,17.98
2022-10-11T04:50:21.773Z,27.60
2022-10-11T04:50:44.984Z,41.05
2022-10-11T04:51:06.829Z,21.05
2022-10-11T04:51:28.823Z,26.83
2022-10-11T04:51:50.884Z,26.50
2022-10-11T04:52:12.602Z,23.15
2022-10-11T04:52:34.351Z,28.33
2022-10-11T04:52:56.519Z,28.27
2022-10-11T04:53:18.292Z,19.15
2022-10-11T04:53:40.241Z,18.75
2022-10-11T04:54:02.259Z,17.60
2022-10-11T04:54:24.022Z,28.98
2022-10-11T04:54:47.791Z,38.17
2022-10-11T04:55:10.613Z,25.30
2022-10-11T04:55:33.707Z,20.13
2022-10-11T04:56:02.068Z,23.70
2022-10-11T04:56:24.185Z,14.63
2022-10-11T04:56:46.009Z,12.30
2022-10-11T04:57:08.866Z,13.25
2022-10-11T04:57:30.645Z,14.60
2022-10-11T04:57:52.460Z,15.60
2022-10-11T04:58:14.241Z,12.38
2022-10-11T04:58:36.317Z,8.68
2022-10-11T04:58:58.173Z,9.65
2022-10-11T04:59:20.117Z,11.70
2022-10-11T04:59:44.483Z,11.13
2022-10-11T05:00:09.102Z,11.57
2022-10-11T05:00:30.884Z,11.30
2022-10-11T05:00:52.616Z,9.55
2022-10-11T05:01:14.955Z,10.52
2022-10-11T05:01:36.859Z,10.30
2022-10-11T05:01:58.676Z,10.15
2022-10-11T05:02:20.441Z,11.30
2022-10-11T05:02:42.461Z,11.27
2022-10-11T05:03:04.181Z,10.15
2022-10-11T05:03:26.748Z,11.25
2022-10-11T05:03:49.627Z,11.18
2022-10-11T05:04:11.370Z,9.82
2022-10-11T05:04:33.342Z,9.40
2022-10-11T05:04:55.137Z,8.48
2022-10-11T05:05:17.661Z,10.43
2022-10-11T05:05:39.417Z,14.48
2022-10-11T05:06:05.686Z,15.23
2022-10-11T05:06:27.976Z,15.98
2022-10-11T05:06:49.754Z,13.70
2022-10-11T05:07:11.480Z,9.80
2022-10-11T05:07:33.167Z,11.57
2022-10-11T05:07:54.864Z,10.77
2022-10-11T05:08:16.633Z,10.90
2022-10-11T05:08:38.435Z,10.80
2022-10-11T05:09:00.697Z,9.45
2022-10-11T05:09:22.996Z,9.50
2022-10-11T05:09:44.924Z,9.07
2022-10-11T05:10:07.318Z,10.30
2022-10-11T05:10:29.007Z,11.05
2022-10-11T05:11:07.548Z,10.65
2022-10-11T05:11:29.321Z,8.55
2022-10-11T05:11:51.033Z,8.52
2022-10-11T05:12:12.831Z,9.02
2022-10-11T05:12:34.647Z,8.60
2022-10-11T05:12:56.471Z,9.73
2022-10-11T05:13:18.157Z,9.07
2022-10-11T05:13:39.992Z,9.10
2022-10-11T05:14:01.781Z,8.38
2022-10-11T05:14:23.705Z,8.70
2022-10-11T05:14:45.387Z,10.15
2022-10-11T05:15:07.930Z,9.77
2022-10-11T05:15:29.901Z,9.35
2022-10-11T05:15:52.205Z,7.78
2022-10-11T05:16:15.353Z,8.65
2022-10-11T05:16:37.560Z,7.95
2022-10-11T05:16:59.309Z,7.97
2022-10-11T05:17:21.138Z,8.10
2022-10-11T05:17:42.807Z,10.77
2022-10-11T05:18:04.538Z,16.13
2022-10-11T05:18:26.406Z,13.77
2022-10-11T05:18:48.169Z,13.60
2022-10-11T05:19:10.395Z,18.07
2022-10-11T05:19:32.312Z,17.67
2022-10-11T05:19:54.046Z,16.30
2022-10-11T05:20:16.096Z,16.85
2022-10-11T05:20:37.774Z,18.53
2022-10-11T05:21:03.090Z,15.15
2022-10-11T05:21:28.797Z,9.65
2022-10-11T05:21:50.566Z,9.13
2022-10-11T05:22:12.394Z,8.65
2022-10-11T05:22:34.302Z,9.80
2022-10-11T05:22:55.996Z,9.45
2022-10-11T05:23:18.221Z,8.40
2022-10-11T05:23:39.972Z,8.05
2022-10-11T05:24:01.800Z,9.70
2022-10-11T05:24:23.993Z,9.52
2022-10-11T05:24:47.003Z,8.35
2022-10-11T05:25:09.436Z,8.40
2022-10-11T05:25:31.425Z,9.48
2022-10-11T05:25:53.149Z,11.25
2022-10-11T05:26:15.811Z,9.32
2022-10-11T05:26:37.789Z,8.50
2022-10-11T05:27:03.176Z,8.65
2022-10-11T05:27:25.540Z,8.27
2022-10-11T05:27:47.323Z,8.50
2022-10-11T05:28:09.327Z,9.00
2022-10-11T05:28:31.362Z,8.55
2022-10-11T05:28:53.486Z,7.47